Terminal Aerodrome Forecast
Issued by NWS Charleston, WV

Current Version | Previous Version | Text Only | Print | Product List | Glossary Off
Versions: 1 2 3 4 5 6 7 8 9 10 11 12 13 14 15 16 17 18 19 20 21 22 23 24 25 26 27 28 29 30

000
FTUS41 KRLX 291400 AAA
TAFHTS
TAF AMD
KHTS 291429Z 2914/3012 30004KT P6SM BKN010
     FM291500 34004KT P6SM BKN015
     FM291800 33005KT P6SM SCT025 BKN050
     FM300000 31003KT P6SM SCT250
     FM300800 00000KT 5SM BR SCT150
     FM300900 00000KT 2SM BR BKN100=

USA.gov is the U.S. government's official web portal to all federal, state and local government web resources and services.